createdAt,value
2023-04-16T00:01:27.814Z,98238.94
2023-04-16T00:03:55.405Z,98241.34
2023-04-16T00:06:23.193Z,98242.63
2023-04-16T00:08:51.482Z,98239.91
2023-04-16T00:11:18.134Z,98233.13
2023-04-16T00:13:44.694Z,98245.06
2023-04-16T00:16:11.368Z,98229.47
2023-04-16T00:18:37.899Z,98241.22
2023-04-16T00:21:04.551Z,98247.22
2023-04-16T00:23:31.228Z,98240.50
2023-04-16T00:25:59.968Z,98244.81
2023-04-16T00:28:27.667Z,98254.28
2023-04-16T00:30:54.755Z,98239.31
2023-04-16T00:33:21.552Z,98252.50
2023-04-16T00:35:48.901Z,98244.38
2023-04-16T00:38:15.785Z,98234.31
2023-04-16T00:40:42.461Z,98231.69
2023-04-16T00:43:09.134Z,98249.31
2023-04-16T00:45:36.460Z,98246.47
2023-04-16T00:48:04.481Z,98244.69
2023-04-16T00:50:31.442Z,98245.38
2023-04-16T00:52:58.349Z,98243.44
2023-04-16T00:55:25.996Z,98242.50
2023-04-16T00:57:53.197Z,98235.38
2023-04-16T01:00:21.401Z,98235.38
2023-04-16T01:02:48.249Z,98233.19
2023-04-16T01:05:15.029Z,98236.63
2023-04-16T01:07:41.588Z,98235.56
2023-04-16T01:10:08.415Z,98234.56
2023-04-16T01:12:34.995Z,98219.28
2023-04-16T01:15:01.897Z,98209.97
2023-04-16T01:17:28.564Z,98217.34
2023-04-16T01:19:59.445Z,98216.06
2023-04-16T01:22:27.746Z,98216.72
2023-04-16T01:24:54.364Z,98224.94
2023-04-16T01:27:21.178Z,98221.69
2023-04-16T01:29:47.870Z,98208.03
2023-04-16T01:32:19.219Z,98227.50
2023-04-16T01:34:46.904Z,98217.44
2023-04-16T01:37:13.799Z,98213.94
2023-04-16T01:39:40.488Z,98229.06
2023-04-16T01:42:08.133Z,98221.50
2023-04-16T01:44:34.722Z,98219.53
2023-04-16T01:47:01.436Z,98230.34
2023-04-16T01:49:29.039Z,98216.59
2023-04-16T01:51:55.826Z,98211.78
2023-04-16T01:54:22.358Z,98227.34
2023-04-16T01:56:48.989Z,98226.00
2023-04-16T01:59:15.589Z,98209.44
2023-04-16T02:01:42.568Z,98233.69
2023-04-16T02:04:10.258Z,98226.09
2023-04-16T02:06:37.737Z,98217.13
2023-04-16T02:09:04.357Z,98217.09
2023-04-16T02:11:31.728Z,98217.91
2023-04-16T02:13:58.509Z,98194.19
2023-04-16T02:16:26.420Z,98235.53
2023-04-16T02:18:58.502Z,98231.19
2023-04-16T02:21:27.528Z,98230.28
2023-04-16T02:23:54.195Z,98227.66
2023-04-16T02:26:26.628Z,98221.75
2023-04-16T02:28:55.576Z,98210.75
2023-04-16T02:31:28.687Z,98227.25
2023-04-16T02:33:57.079Z,98207.94
2023-04-16T02:36:23.787Z,98227.91
2023-04-16T02:38:50.457Z,98212.31
2023-04-16T02:41:17.510Z,98220.09
2023-04-16T02:43:44.335Z,98217.56
2023-04-16T02:46:10.991Z,98208.91
2023-04-16T02:48:37.689Z,98207.44
2023-04-16T02:51:04.426Z,98219.47
2023-04-16T02:53:31.032Z,98219.22
2023-04-16T02:55:57.678Z,98218.91
2023-04-16T02:58:25.967Z,98223.22
2023-04-16T03:00:53.851Z,98220.91
2023-04-16T03:03:21.802Z,98221.97
2023-04-16T03:05:48.785Z,98228.34
2023-04-16T03:08:16.332Z,98203.94
2023-04-16T03:10:43.221Z,98228.09
2023-04-16T03:13:09.868Z,98226.81
2023-04-16T03:15:36.639Z,98229.16
2023-04-16T03:18:03.391Z,98232.84
2023-04-16T03:20:30.185Z,98232.03
2023-04-16T03:22:57.277Z,98235.53
2023-04-16T03:25:23.968Z,98228.88
2023-04-16T03:27:51.253Z,98210.88
2023-04-16T03:30:18.314Z,98221.06
2023-04-16T03:32:45.132Z,98236.69
2023-04-16T03:35:12.742Z,98232.84
2023-04-16T03:37:39.500Z,98231.53
2023-04-16T03:40:07.328Z,98232.19
2023-04-16T03:42:34.339Z,98240.84
2023-04-16T03:45:01.191Z,98238.84
2023-04-16T03:47:28.156Z,98243.16
2023-04-16T03:49:58.807Z,98232.00
2023-04-16T03:52:25.458Z,98227.50
2023-04-16T03:54:53.255Z,98237.63
2023-04-16T03:57:25.292Z,98236.81
2023-04-16T03:59:55.340Z,98234.19
2023-04-16T04:02:22.930Z,98230.53
2023-04-16T04:04:50.035Z,98233.84
2023-04-16T04:07:17.506Z,98195.91
2023-04-16T04:09:44.060Z,98240.38
2023-04-16T04:12:10.827Z,98219.25
2023-04-16T04:14:40.149Z,98236.03
2023-04-16T04:17:08.359Z,98235.72
2023-04-16T04:19:34.976Z,98242.19
2023-04-16T04:22:02.623Z,98234.16
2023-04-16T04:24:29.452Z,98237.50
2023-04-16T04:26:57.489Z,98242.19
2023-04-16T04:29:24.256Z,98224.38
2023-04-16T04:31:51.311Z,98240.38
2023-04-16T04:34:18.080Z,98232.22
2023-04-16T04:36:44.903Z,98237.44
2023-04-16T04:39:13.390Z,98248.09
2023-04-16T04:41:42.901Z,98248.63
2023-04-16T04:44:09.473Z,98237.78
2023-04-16T04:46:36.192Z,98219.81
2023-04-16T04:49:02.763Z,98251.44
2023-04-16T04:51:31.717Z,98256.94
2023-04-16T04:53:58.620Z,98248.28
2023-04-16T04:56:25.594Z,98264.91
2023-04-16T04:58:52.265Z,98267.91
2023-04-16T05:01:20.140Z,98258.25
2023-04-16T05:03:46.886Z,98267.41
2023-04-16T05:06:13.589Z,98267.41
2023-04-16T05:08:40.407Z,98259.75
2023-04-16T05:11:07.121Z,98269.84
2023-04-16T05:13:33.747Z,98267.03
2023-04-16T05:16:00.291Z,98265.88
2023-04-16T05:18:26.891Z,98267.22
2023-04-16T05:20:53.655Z,98263.22
2023-04-16T05:23:20.295Z,98265.41
2023-04-16T05:25:46.938Z,98262.75
2023-04-16T05:28:13.509Z,98257.94
2023-04-16T05:30:40.217Z,98274.56
2023-04-16T05:33:06.911Z,98281.56
2023-04-16T05:35:34.412Z,98271.75
2023-04-16T05:38:01.097Z,98268.25
2023-04-16T05:40:27.762Z,98268.75
2023-04-16T05:42:54.347Z,98299.22
2023-04-16T05:45:20.892Z,98295.22
2023-04-16T05:47:47.857Z,98284.91
2023-04-16T05:50:14.626Z,98295.72
2023-04-16T05:52:41.143Z,98270.25
2023-04-16T05:55:08.036Z,98284.91
2023-04-16T05:57:34.618Z,98250.44
2023-04-16T06:00:01.274Z,98281.06
2023-04-16T06:02:28.095Z,98261.25
2023-04-16T06:04:54.810Z,98272.56
2023-04-16T06:07:21.690Z,98285.19
2023-04-16T06:09:48.279Z,98280.03
2023-04-16T06:12:14.959Z,98279.19
2023-04-16T06:14:41.543Z,98285.63
2023-04-16T06:17:08.215Z,98288.09
2023-04-16T06:19:34.831Z,98284.75
2023-04-16T06:22:01.429Z,98283.03
2023-04-16T06:24:28.169Z,98268.72
2023-04-16T06:26:54.740Z,98290.13
2023-04-16T06:29:24.156Z,98274.78
2023-04-16T06:31:57.312Z,98292.19
2023-04-16T06:34:24.015Z,98279.13
2023-04-16T06:36:50.662Z,98286.75
2023-04-16T06:39:17.360Z,98280.19
2023-04-16T06:41:43.979Z,98272.31
2023-04-16T06:44:10.702Z,98294.41
2023-04-16T06:46:37.360Z,98281.50
2023-04-16T06:49:04.040Z,98289.88
2023-04-16T06:51:30.725Z,98297.28
2023-04-16T06:53:57.370Z,98296.13
2023-04-16T06:56:23.931Z,98295.34
2023-04-16T06:58:51.523Z,98295.88
2023-04-16T07:01:18.737Z,98293.75
2023-04-16T07:03:45.648Z,98282.63
2023-04-16T07:06:12.254Z,98304.81
2023-04-16T07:08:38.830Z,98302.69
2023-04-16T07:11:05.577Z,98299.09
2023-04-16T07:13:32.189Z,98287.13
2023-04-16T07:15:58.735Z,98313.38
2023-04-16T07:18:25.660Z,98304.34
2023-04-16T07:20:52.302Z,98312.56
2023-04-16T07:23:18.962Z,98316.16
2023-04-16T07:25:46.090Z,98309.31
2023-04-16T07:28:12.912Z,98298.69
2023-04-16T07:30:39.515Z,98303.09
2023-04-16T07:33:06.243Z,98303.94
2023-04-16T07:35:32.886Z,98296.25
2023-04-16T07:37:59.582Z,98306.09
2023-04-16T07:40:26.660Z,98302.66
2023-04-16T07:42:53.326Z,98306.78
2023-04-16T07:45:19.937Z,98311.97
2023-04-16T07:47:46.655Z,98308.28
2023-04-16T07:50:13.432Z,98313.56
2023-04-16T07:52:42.393Z,98316.59
2023-04-16T07:55:09.318Z,98314.53
2023-04-16T07:57:36.470Z,98306.00
2023-04-16T08:00:05.023Z,98326.16
2023-04-16T08:02:39.759Z,98321.13
2023-04-16T08:05:07.278Z,98320.31
2023-04-16T08:07:34.790Z,98273.38
2023-04-16T08:10:02.157Z,98310.94
2023-04-16T08:12:29.505Z,98327.66
2023-04-16T08:14:56.305Z,98323.00
2023-04-16T08:17:23.017Z,98324.56
2023-04-16T08:19:49.670Z,98327.81
2023-04-16T08:22:16.859Z,98335.13
2023-04-16T08:24:43.420Z,98343.44
2023-04-16T08:27:18.579Z,98342.22
2023-04-16T08:29:47.534Z,98338.44
2023-04-16T08:32:14.201Z,98342.63
2023-04-16T08:34:41.956Z,98351.75
2023-04-16T08:37:09.079Z,98349.00
2023-04-16T08:39:35.965Z,98345.47
2023-04-16T08:42:05.632Z,98339.09
2023-04-16T08:44:34.868Z,98343.25
2023-04-16T08:47:02.361Z,98333.31
2023-04-16T08:49:30.391Z,98333.75
2023-04-16T08:51:57.407Z,98352.28
2023-04-16T08:54:24.001Z,98358.59
2023-04-16T08:56:51.554Z,98359.97
2023-04-16T08:59:19.092Z,98348.81
2023-04-16T09:01:46.842Z,98351.00
2023-04-16T09:04:15.833Z,98339.03
2023-04-16T09:06:43.317Z,98366.91
2023-04-16T09:09:12.571Z,98356.41
2023-04-16T09:11:39.822Z,98362.50
2023-04-16T09:14:09.843Z,98345.47
2023-04-16T09:16:36.969Z,98353.06
2023-04-16T09:19:03.951Z,98349.59
2023-04-16T09:21:31.043Z,98349.00
2023-04-16T09:23:58.486Z,98355.78
2023-04-16T09:26:25.938Z,98347.44
2023-04-16T09:28:52.624Z,98351.44
2023-04-16T09:31:19.592Z,98352.22
2023-04-16T09:34:02.581Z,98361.44
2023-04-16T09:36:29.719Z,98366.41
2023-04-16T09:38:57.775Z,98346.00
2023-04-16T09:41:29.097Z,98353.59
2023-04-16T09:43:59.794Z,98357.22
2023-04-16T09:46:36.284Z,98355.16
2023-04-16T09:49:16.229Z,98349.31
2023-04-16T09:51:44.317Z,98353.75
2023-04-16T09:54:11.256Z,98335.25
2023-04-16T09:56:45.872Z,98347.03
2023-04-16T09:59:19.591Z,98344.72
2023-04-16T10:01:59.740Z,98341.34
2023-04-16T10:04:50.082Z,98340.63
2023-04-16T10:07:17.696Z,98330.78
2023-04-16T10:09:44.425Z,98337.91
2023-04-16T10:12:12.819Z,98340.84
2023-04-16T10:14:40.126Z,98336.78
2023-04-16T10:17:07.868Z,98335.13
2023-04-16T10:19:35.356Z,98332.41
2023-04-16T10:22:03.249Z,98330.91
2023-04-16T10:24:31.229Z,98332.59
2023-04-16T10:26:58.492Z,98328.06
2023-04-16T10:29:27.180Z,98324.06
2023-04-16T10:31:55.588Z,98335.94
2023-04-16T10:34:23.429Z,98340.78
2023-04-16T10:36:52.947Z,98337.09
2023-04-16T10:39:21.851Z,98320.00
2023-04-16T10:41:49.432Z,98326.91
2023-04-16T10:44:18.450Z,98321.59
2023-04-16T10:46:50.886Z,98325.53
2023-04-16T10:49:19.411Z,98324.84
2023-04-16T10:51:57.644Z,98308.91
2023-04-16T10:54:27.954Z,98292.84
2023-04-16T10:56:57.793Z,98313.03
2023-04-16T10:59:25.764Z,98310.59
2023-04-16T11:01:55.776Z,98300.66
2023-04-16T11:04:25.695Z,98298.50
2023-04-16T11:07:13.989Z,98303.56
2023-04-16T11:10:05.271Z,98295.63
2023-04-16T11:12:38.063Z,98284.16
2023-04-16T11:15:09.144Z,98290.09
2023-04-16T11:17:48.038Z,98286.75
2023-04-16T11:20:19.044Z,98283.69
2023-04-16T11:22:50.964Z,98265.75
2023-04-16T11:25:26.080Z,98271.72
2023-04-16T11:27:53.430Z,98267.81
2023-04-16T11:30:31.933Z,98284.41
2023-04-16T11:32:58.667Z,98272.97
2023-04-16T11:35:25.512Z,98255.84
2023-04-16T11:37:56.518Z,98260.03
2023-04-16T11:40:23.510Z,98249.94
2023-04-16T11:42:50.264Z,98261.56
2023-04-16T11:45:19.131Z,98260.66
2023-04-16T11:47:47.783Z,98256.19
2023-04-16T11:50:28.505Z,98256.47
2023-04-16T11:52:57.627Z,98260.50
2023-04-16T11:55:24.634Z,98250.81
2023-04-16T11:57:52.164Z,98262.50
2023-04-16T12:00:24.404Z,98251.91
2023-04-16T12:02:53.708Z,98246.06
2023-04-16T12:05:34.002Z,98254.88
2023-04-16T12:08:03.589Z,98253.31
2023-04-16T12:10:34.871Z,98256.53
2023-04-16T12:13:12.702Z,98252.97
2023-04-16T12:16:21.250Z,98254.63
2023-04-16T12:19:02.970Z,98239.28
2023-04-16T12:21:39.897Z,98231.03
2023-04-16T12:24:07.968Z,98245.00
2023-04-16T12:26:42.867Z,98231.91
2023-04-16T12:29:27.532Z,98241.53
2023-04-16T12:31:54.625Z,98228.03
2023-04-16T12:34:21.823Z,98242.25
2023-04-16T12:37:11.017Z,98229.50
2023-04-16T12:39:37.605Z,98217.19
2023-04-16T12:42:06.361Z,98208.56
2023-04-16T12:44:33.080Z,98219.38
2023-04-16T12:46:59.661Z,98220.94
2023-04-16T12:49:26.300Z,98218.03
2023-04-16T12:51:52.971Z,98219.97
2023-04-16T12:54:19.598Z,98216.81
2023-04-16T12:56:46.549Z,98216.28
2023-04-16T12:59:13.136Z,98217.88
2023-04-16T13:01:40.013Z,98213.28
2023-04-16T13:04:07.632Z,98211.56
2023-04-16T13:06:36.682Z,98199.19
2023-04-16T13:09:04.254Z,98198.44
2023-04-16T13:11:30.759Z,98196.06
2023-04-16T13:13:57.290Z,98196.81
2023-04-16T13:16:24.215Z,98197.47
2023-04-16T13:18:51.018Z,98194.00
2023-04-16T13:21:17.609Z,98184.00
2023-04-16T13:23:44.286Z,98181.31
2023-04-16T13:26:13.030Z,98186.44
2023-04-16T13:28:39.756Z,98172.56
2023-04-16T13:31:06.429Z,98184.81
2023-04-16T13:33:33.055Z,98176.78
2023-04-16T13:35:59.644Z,98175.47
2023-04-16T13:38:26.504Z,98176.97
2023-04-16T13:40:53.177Z,98169.72
2023-04-16T13:43:19.822Z,98169.97
2023-04-16T13:45:46.453Z,98166.81
2023-04-16T13:48:13.090Z,98162.56
2023-04-16T13:50:39.733Z,98149.44
2023-04-16T13:53:06.420Z,98155.91
2023-04-16T13:55:33.156Z,98147.75
2023-04-16T13:58:00.138Z,98144.78
2023-04-16T14:00:27.284Z,98153.34
2023-04-16T14:02:54.026Z,98144.19
2023-04-16T14:05:20.791Z,98150.97
2023-04-16T14:07:47.404Z,98133.78
2023-04-16T14:10:14.336Z,98142.63
2023-04-16T14:12:41.290Z,98136.56
2023-04-16T14:15:09.660Z,98141.69
2023-04-16T14:17:39.383Z,98151.66
2023-04-16T14:20:06.861Z,98138.88
2023-04-16T14:22:33.687Z,98128.22
2023-04-16T14:25:01.094Z,98128.63
2023-04-16T14:27:28.772Z,98131.41
2023-04-16T14:29:55.362Z,98135.91
2023-04-16T14:32:22.082Z,98131.84
2023-04-16T14:34:48.689Z,98129.09
2023-04-16T14:37:16.758Z,98128.94
2023-04-16T14:39:43.631Z,98124.19
2023-04-16T14:42:10.678Z,98124.81
2023-04-16T14:44:37.434Z,98106.75
2023-04-16T14:47:04.149Z,98124.25
2023-04-16T14:49:30.689Z,98132.53
2023-04-16T14:51:57.600Z,98114.72
2023-04-16T14:54:24.264Z,98122.13
2023-04-16T14:56:51.097Z,98131.03
2023-04-16T14:59:17.779Z,98129.09
2023-04-16T15:01:46.294Z,98118.81
2023-04-16T15:04:13.109Z,98110.50
2023-04-16T15:06:39.820Z,98120.28
2023-04-16T15:09:07.516Z,98109.63
2023-04-16T15:11:34.241Z,98107.75
2023-04-16T15:14:01.280Z,98103.56
2023-04-16T15:16:27.965Z,98116.56
2023-04-16T15:18:54.611Z,98137.25
2023-04-16T15:21:21.145Z,98126.66
2023-04-16T15:23:47.827Z,98123.00
2023-04-16T15:26:14.534Z,98111.97
2023-04-16T15:28:41.317Z,98129.69
2023-04-16T15:31:08.497Z,98119.06
2023-04-16T15:33:35.263Z,98124.88
2023-04-16T15:36:01.984Z,98113.63
2023-04-16T15:38:30.638Z,98113.97
2023-04-16T15:41:00.704Z,98111.66
2023-04-16T15:43:28.931Z,98110.53
2023-04-16T15:45:56.377Z,98123.56
2023-04-16T15:48:23.891Z,98112.56
2023-04-16T15:50:51.298Z,98115.56
2023-04-16T15:53:18.152Z,98112.38
2023-04-16T15:55:44.907Z,98121.28
2023-04-16T15:58:12.596Z,98107.44
2023-04-16T16:00:39.198Z,98125.22
2023-04-16T16:03:06.067Z,98129.03
2023-04-16T16:05:32.887Z,98132.91
2023-04-16T16:08:01.717Z,98121.84
2023-04-16T16:10:28.487Z,98128.56
2023-04-16T16:12:57.074Z,98101.00
2023-04-16T16:15:23.718Z,98132.75
2023-04-16T16:17:52.767Z,98122.19
2023-04-16T16:20:19.713Z,98141.13
2023-04-16T16:22:48.255Z,98133.38
2023-04-16T16:25:14.930Z,98141.44
2023-04-16T16:27:42.131Z,98129.44
2023-04-16T16:30:09.078Z,98145.28
2023-04-16T16:32:35.965Z,98143.66
2023-04-16T16:35:02.772Z,98141.09
2023-04-16T16:37:29.372Z,98134.47
2023-04-16T16:39:55.938Z,98139.50
2023-04-16T16:42:22.492Z,98141.91
2023-04-16T16:44:49.190Z,98146.84
2023-04-16T16:47:15.823Z,98148.97
2023-04-16T16:49:42.368Z,98153.63
2023-04-16T16:52:09.052Z,98161.81
2023-04-16T16:54:36.041Z,98152.25
2023-04-16T16:57:03.265Z,98164.13
2023-04-16T16:59:29.783Z,98163.66
2023-04-16T17:01:56.561Z,98157.34
2023-04-16T17:04:23.688Z,98162.06
2023-04-16T17:06:50.846Z,98161.78
2023-04-16T17:09:17.965Z,98163.97
2023-04-16T17:11:44.792Z,98164.75
2023-04-16T17:14:11.431Z,98152.16
2023-04-16T17:16:38.143Z,98160.63
2023-04-16T17:19:04.789Z,98178.38
2023-04-16T17:21:34.909Z,98169.47
2023-04-16T17:24:01.458Z,98179.13
2023-04-16T17:26:28.035Z,98175.59
2023-04-16T17:28:56.657Z,98185.41
2023-04-16T17:31:25.007Z,98184.69
2023-04-16T17:33:53.710Z,98193.56
2023-04-16T17:36:22.807Z,98202.88
2023-04-16T17:38:50.612Z,98205.19
2023-04-16T17:41:19.573Z,98201.88
2023-04-16T17:43:50.245Z,98195.34
2023-04-16T17:46:17.102Z,98214.59
2023-04-16T17:48:48.738Z,98210.50
2023-04-16T17:51:16.464Z,98213.81
2023-04-16T17:53:43.440Z,98222.31
2023-04-16T17:56:11.025Z,98212.56
2023-04-16T17:58:37.701Z,98228.09
2023-04-16T18:01:04.749Z,98215.69
2023-04-16T18:03:32.888Z,98231.06
2023-04-16T18:06:00.094Z,98234.47
2023-04-16T18:08:27.640Z,98230.09
2023-04-16T18:10:55.341Z,98224.53
2023-04-16T18:13:22.053Z,98235.19
2023-04-16T18:15:48.718Z,98228.16
2023-04-16T18:18:15.625Z,98228.56
2023-04-16T18:20:42.300Z,98255.28
2023-04-16T18:23:08.883Z,98257.19
2023-04-16T18:25:35.880Z,98262.06
2023-04-16T18:28:03.827Z,98267.22
2023-04-16T18:30:30.680Z,98272.69
2023-04-16T18:33:16.557Z,98267.94
2023-04-16T18:35:44.074Z,98273.66
2023-04-16T18:38:10.921Z,98288.97
2023-04-16T18:40:37.552Z,98265.22
2023-04-16T18:43:04.269Z,98280.59
2023-04-16T18:45:34.108Z,98284.28
2023-04-16T18:48:03.496Z,98276.38
2023-04-16T18:50:30.156Z,98282.47
2023-04-16T18:52:56.868Z,98294.28
2023-04-16T18:55:23.752Z,98294.75
2023-04-16T18:57:50.479Z,98296.38
2023-04-16T19:00:17.220Z,98304.09
2023-04-16T19:02:43.901Z,98306.56
2023-04-16T19:05:10.764Z,98303.50
2023-04-16T19:07:37.863Z,98308.19
2023-04-16T19:10:05.541Z,98312.56
2023-04-16T19:12:32.361Z,98287.88
2023-04-16T19:14:59.326Z,98327.53
2023-04-16T19:17:26.639Z,98315.38
2023-04-16T19:19:53.532Z,98332.63
2023-04-16T19:22:20.107Z,98327.25
2023-04-16T19:24:46.921Z,98326.88
2023-04-16T19:27:13.575Z,98348.38
2023-04-16T19:29:42.741Z,98356.19
2023-04-16T19:32:09.468Z,98366.25
2023-04-16T19:34:36.072Z,98374.56
2023-04-16T19:37:02.688Z,98370.22
2023-04-16T19:39:29.290Z,98384.44
2023-04-16T19:41:56.237Z,98383.50
2023-04-16T19:44:23.242Z,98386.72
2023-04-16T19:46:49.968Z,98396.78
2023-04-16T19:49:16.631Z,98403.84
2023-04-16T19:51:43.168Z,98403.28
2023-04-16T19:54:09.819Z,98411.00
2023-04-16T19:56:36.664Z,98411.00
2023-04-16T19:59:03.378Z,98419.28
2023-04-16T20:01:33.103Z,98422.75
2023-04-16T20:04:00.726Z,98433.06
2023-04-16T20:06:27.702Z,98419.94
2023-04-16T20:08:54.379Z,98421.50
2023-04-16T20:11:21.338Z,98429.66
2023-04-16T20:13:48.650Z,98434.50
2023-04-16T20:16:15.586Z,98432.16
2023-04-16T20:18:42.598Z,98440.56
2023-04-16T20:21:10.477Z,98434.63
2023-04-16T20:23:37.197Z,98440.34
2023-04-16T20:26:04.418Z,98456.66
2023-04-16T20:28:31.118Z,98449.44
2023-04-16T20:30:57.957Z,98459.16
2023-04-16T20:33:24.619Z,98457.59
2023-04-16T20:35:52.173Z,98465.16
2023-04-16T20:38:23.784Z,98459.97
2023-04-16T20:41:06.376Z,98472.09
2023-04-16T20:43:38.260Z,98465.78
2023-04-16T20:46:05.161Z,98453.03
2023-04-16T20:48:31.938Z,98471.66
2023-04-16T20:51:03.703Z,98480.03
2023-04-16T20:53:33.654Z,98472.63
2023-04-16T20:56:03.387Z,98476.16
2023-04-16T20:58:30.167Z,98485.72
2023-04-16T21:00:57.820Z,98481.69
2023-04-16T21:03:25.032Z,98476.75
2023-04-16T21:05:54.281Z,98492.78
2023-04-16T21:08:22.656Z,98486.16
2023-04-16T21:10:50.470Z,98487.91
2023-04-16T21:13:17.156Z,98490.41
2023-04-16T21:15:44.818Z,98488.38
2023-04-16T21:18:11.755Z,98491.19
2023-04-16T21:20:39.156Z,98482.09
2023-04-16T21:23:06.469Z,98488.81
2023-04-16T21:25:36.006Z,98495.13
2023-04-16T21:28:02.809Z,98473.84
2023-04-16T21:30:29.447Z,98499.81
2023-04-16T21:32:56.206Z,98507.75
2023-04-16T21:35:22.835Z,98506.09
2023-04-16T21:37:49.493Z,98507.16
2023-04-16T21:40:16.291Z,98522.72
2023-04-16T21:42:42.884Z,98527.91
2023-04-16T21:45:10.411Z,98530.00
2023-04-16T21:47:37.503Z,98535.44
2023-04-16T21:50:04.622Z,98519.34
2023-04-16T21:52:32.860Z,98486.63
2023-04-16T21:55:00.259Z,98531.38
2023-04-16T21:57:26.898Z,98522.97
2023-04-16T21:59:53.549Z,98539.50
2023-04-16T22:02:20.458Z,98540.44
2023-04-16T22:04:47.316Z,98522.44
2023-04-16T22:07:16.729Z,98535.78
2023-04-16T22:09:43.691Z,98532.22
2023-04-16T22:12:10.439Z,98523.44
2023-04-16T22:14:42.126Z,98539.22
2023-04-16T22:17:12.955Z,98538.41
2023-04-16T22:19:39.617Z,98545.69
2023-04-16T22:22:06.225Z,98547.81
2023-04-16T22:24:33.169Z,98554.25
2023-04-16T22:27:00.124Z,98553.91
2023-04-16T22:29:26.841Z,98551.16
2023-04-16T22:31:53.432Z,98553.88
2023-04-16T22:34:20.233Z,98553.28
2023-04-16T22:36:47.514Z,98559.19
2023-04-16T22:39:14.582Z,98549.88
2023-04-16T22:41:41.460Z,98553.53
2023-04-16T22:44:08.094Z,98562.72
2023-04-16T22:46:35.033Z,98564.88
2023-04-16T22:49:01.852Z,98559.34
2023-04-16T22:51:29.337Z,98572.03
2023-04-16T22:53:56.322Z,98559.25
2023-04-16T22:56:28.424Z,98565.31
2023-04-16T22:58:54.958Z,98565.75
2023-04-16T23:01:21.920Z,98560.56
2023-04-16T23:03:48.927Z,98569.09
2023-04-16T23:06:15.911Z,98573.72
2023-04-16T23:08:42.481Z,98563.81
2023-04-16T23:11:09.099Z,98567.38
2023-04-16T23:13:36.201Z,98563.25
2023-04-16T23:16:02.950Z,98579.66
2023-04-16T23:18:29.633Z,98568.88
2023-04-16T23:20:56.426Z,98562.06
2023-04-16T23:23:23.001Z,98568.09
2023-04-16T23:25:53.330Z,98559.38
2023-04-16T23:28:20.590Z,98560.22
2023-04-16T23:30:47.175Z,98564.38
2023-04-16T23:33:13.800Z,98562.91
2023-04-16T23:35:40.500Z,98560.88
2023-04-16T23:38:07.251Z,98561.91
2023-04-16T23:40:33.861Z,98559.22
2023-04-16T23:43:00.429Z,98561.31
2023-04-16T23:45:27.074Z,98551.34
2023-04-16T23:47:53.719Z,98554.06
2023-04-16T23:50:20.381Z,98554.25
2023-04-16T23:52:47.014Z,98551.56
2023-04-16T23:55:13.616Z,98561.94
2023-04-16T23:57:40.297Z,98554.47
